Flight Number: EUR2189 Duration: 2:30
Departure: Munich Int'l (EDDM) at 08:00 Distance: 850 Nm
Arrival: Istanbul / Ataturk (LTBA) at 10:30 Equipment: B737

Weather Information
Munchen, Germany (EDDM) 48-21N 011-47E Oct 17, 2018 - 10:50 PM EDT / 2018.10.18 0250 UTC
Wind: from the S (190 degrees) at 2 MPH (2 KT):0
Visibility: 3 mile(s):0 Weather: patches of fog Temperature: 37 F (3 C) Dew Point: 35 F (2 C) Relative Humidity: 93% Pressure (altimeter): 30.09 in. Hg (1019 hPa)
ob: EDDM 180250Z 19002KT 5000 0900E R26R/P2000N R08R/0800VP2000U BCFG NSC 03/02 Q1019 NOSIG cycle: 3
Sunrise: 05:41 Sunset: 16:14 (UTC)

Istanbul / Ataturk, Turkey (LTBA) 40-58N 028-49E 37M Oct 17, 2018 - 10:53 PM EDT / 2018.10.18 0253 UTC
Wind: from the NNE (030 degrees) at 9 MPH (8 KT) (direction variable):0
Visibility: greater than 7 mile(s):0
Sky conditions: mostly cloudy Weather: light rain with thunder; Cumulonimbus clouds observed Temperature: 66 F (19 C) Dew Point: 60 F (16 C) Relative Humidity: 82% Pressure (altimeter): 30.03 in. Hg (1017 hPa)
ob: LTBA 180253Z 03008KT 350V080 9999 -TSRA FEW009 FEW015CB BKN025 19/16 Q1017 RESHRA BECMG TL0420 NSW RMK RWY17L 02007KT 340V050 RWY05 02007KT RWY23 05007KT cycle: 3
Sunrise: 04:23 Sunset: 15:16 (UTC)

TAF:2018/10/18 02:41 TAF AMD LTBA 180234Z 1802/1906 02009KT 9999 FEW012 BKN030 TEMPO 1803/1806 -TSRA FEW015CB BKN025 PROB40 TEMPO 1806/1809 01015G25KT 4000 SHRA FEW015CB BKN025 BECMG 1814/1817 SCT035 TEMPO 1902/1906 4000 -RA BR SCT008 BKN020

Previous Pireps for this route
Date Aircraft Flight time Fuel used Landing rate On time
2013-04-20B73703.0716852-170No
2013-08-20B73702.3213497-96Yes
2014-03-01B73702.3018452-316Yes
2015-01-12B73702.1012545-250Yes
2015-02-13B74702.3748364-578Charter
2015-04-24B74702.0548934-164Charter
2015-05-02B7772.24510030Charter
2015-05-26B7373.30115000Charter
2015-09-14B77702.3831217-366Charter
2017-01-20B73702.121157649Yes
(pireps marked green are flown by you)

Route map